sensor_id;sensor_type;location;lat;lon;timestamp;temperature;humidity
68480;DHT22;55469;48.934;12.050;2023-02-01T00:00:10;3.10;96.40
68480;DHT22;55469;48.934;12.050;2023-02-01T00:02:37;3.10;96.40
68480;DHT22;55469;48.934;12.050;2023-02-01T00:05:07;3.10;96.40
68480;DHT22;55469;48.934;12.050;2023-02-01T00:07:34;3.10;96.40
68480;DHT22;55469;48.934;12.050;2023-02-01T00:10:00;3.10;96.40
68480;DHT22;55469;48.934;12.050;2023-02-01T00:12:26;3.10;96.40
68480;DHT22;55469;48.934;12.050;2023-02-01T00:14:51;3.00;96.50
68480;DHT22;55469;48.934;12.050;2023-02-01T00:17:17;3.10;96.50
68480;DHT22;55469;48.934;12.050;2023-02-01T00:19:43;3.10;96.40
68480;DHT22;55469;48.934;12.050;2023-02-01T00:22:09;3.10;96.50
68480;DHT22;55469;48.934;12.050;2023-02-01T00:24:34;3.00;96.40
68480;DHT22;55469;48.934;12.050;2023-02-01T00:27:00;3.00;96.50
68480;DHT22;55469;48.934;12.050;2023-02-01T00:29:26;3.10;96.50
68480;DHT22;55469;48.934;12.050;2023-02-01T00:31:51;3.10;96.50
68480;DHT22;55469;48.934;12.050;2023-02-01T00:34:18;3.10;96.50
68480;DHT22;55469;48.934;12.050;2023-02-01T00:36:45;3.10;96.50
68480;DHT22;55469;48.934;12.050;2023-02-01T00:39:11;3.10;96.50
68480;DHT22;55469;48.934;12.050;2023-02-01T00:41:37;3.10;96.60
68480;DHT22;55469;48.934;12.050;2023-02-01T00:44:03;3.00;96.50
68480;DHT22;55469;48.934;12.050;2023-02-01T00:46:29;3.00;96.40
68480;DHT22;55469;48.934;12.050;2023-02-01T00:48:55;3.00;96.40
68480;DHT22;55469;48.934;12.050;2023-02-01T00:51:27;3.10;96.60
68480;DHT22;55469;48.934;12.050;2023-02-01T00:53:54;3.10;96.50
68480;DHT22;55469;48.934;12.050;2023-02-01T00:56:20;3.10;96.50
68480;DHT22;55469;48.934;12.050;2023-02-01T00:58:47;3.00;96.50
68480;DHT22;55469;48.934;12.050;2023-02-01T01:03:51;3.00;96.60
68480;DHT22;55469;48.934;12.050;2023-02-01T01:06:23;3.10;96.60
68480;DHT22;55469;48.934;12.050;2023-02-01T01:08:52;3.10;96.70
68480;DHT22;55469;48.934;12.050;2023-02-01T01:11:21;3.10;96.70
68480;DHT22;55469;48.934;12.050;2023-02-01T01:13:50;3.00;96.60
68480;DHT22;55469;48.934;12.050;2023-02-01T01:16:17;3.10;96.60
68480;DHT22;55469;48.934;12.050;2023-02-01T01:18:44;3.10;96.60
68480;DHT22;55469;48.934;12.050;2023-02-01T01:21:12;3.10;96.60
68480;DHT22;55469;48.934;12.050;2023-02-01T01:23:39;3.10;96.70
68480;DHT22;55469;48.934;12.050;2023-02-01T01:26:17;3.10;96.70
68480;DHT22;55469;48.934;12.050;2023-02-01T01:28:45;3.10;96.70
68480;DHT22;55469;48.934;12.050;2023-02-01T01:31:12;3.00;96.70
68480;DHT22;55469;48.934;12.050;2023-02-01T01:33:40;3.10;96.70
68480;DHT22;55469;48.934;12.050;2023-02-01T01:36:07;3.00;96.60
68480;DHT22;55469;48.934;12.050;2023-02-01T01:38:38;3.00;96.70
68480;DHT22;55469;48.934;12.050;2023-02-01T01:41:04;3.00;96.70
68480;DHT22;55469;48.934;12.050;2023-02-01T01:43:51;3.10;96.60
68480;DHT22;55469;48.934;12.050;2023-02-01T01:46:25;3.10;96.70
68480;DHT22;55469;48.934;12.050;2023-02-01T01:49:13;3.10;96.70
68480;DHT22;55469;48.934;12.050;2023-02-01T01:51:48;3.10;96.60
68480;DHT22;55469;48.934;12.050;2023-02-01T01:54:40;3.10;96.60
68480;DHT22;55469;48.934;12.050;2023-02-01T01:57:11;3.10;96.60
68480;DHT22;55469;48.934;12.050;2023-02-01T01:59:41;3.00;96.60
68480;DHT22;55469;48.934;12.050;2023-02-01T02:02:09;3.00;96.60
68480;DHT22;55469;48.934;12.050;2023-02-01T02:04:35;3.00;96.70
68480;DHT22;55469;48.934;12.050;2023-02-01T02:07:06;3.10;96.60
68480;DHT22;55469;48.934;12.050;2023-02-01T02:09:35;3.10;96.70
68480;DHT22;55469;48.934;12.050;2023-02-01T02:12:00;3.00;96.70
68480;DHT22;55469;48.934;12.050;2023-02-01T02:14:26;3.10;96.60
68480;DHT22;55469;48.934;12.050;2023-02-01T02:17:12;3.10;96.60
68480;DHT22;55469;48.934;12.050;2023-02-01T02:25:42;3.10;96.70
68480;DHT22;55469;48.934;12.050;2023-02-01T02:31:40;3.10;96.70
68480;DHT22;55469;48.934;12.050;2023-02-01T02:34:18;3.10;96.70
68480;DHT22;55469;48.934;12.050;2023-02-01T02:37:28;3.10;96.70
68480;DHT22;55469;48.934;12.050;2023-02-01T02:46:04;3.10;96.80
68480;DHT22;55469;48.934;12.050;2023-02-01T02:49:05;3.10;96.90
68480;DHT22;55469;48.934;12.050;2023-02-01T02:51:48;3.10;96.90
68480;DHT22;55469;48.934;12.050;2023-02-01T02:54:38;3.10;96.80
68480;DHT22;55469;48.934;12.050;2023-02-01T02:57:23;3.10;96.80
68480;DHT22;55469;48.934;12.050;2023-02-01T03:00:12;3.10;96.70
68480;DHT22;55469;48.934;12.050;2023-02-01T03:03:00;3.10;96.80
68480;DHT22;55469;48.934;12.050;2023-02-01T03:05:46;3.10;96.70
68480;DHT22;55469;48.934;12.050;2023-02-01T03:11:13;3.10;96.70
68480;DHT22;55469;48.934;12.050;2023-02-01T03:16:22;3.10;96.70
68480;DHT22;55469;48.934;12.050;2023-02-01T03:19:11;3.10;96.80
68480;DHT22;55469;48.934;12.050;2023-02-01T03:21:49;3.10;96.70
68480;DHT22;55469;48.934;12.050;2023-02-01T03:24:38;3.10;96.70
68480;DHT22;55469;48.934;12.050;2023-02-01T03:27:30;3.10;96.80
68480;DHT22;55469;48.934;12.050;2023-02-01T03:30:33;3.10;96.70
68480;DHT22;55469;48.934;12.050;2023-02-01T03:33:02;3.10;96.60
68480;DHT22;55469;48.934;12.050;2023-02-01T03:35:57;3.10;96.70
68480;DHT22;55469;48.934;12.050;2023-02-01T03:38:50;3.10;96.70
68480;DHT22;55469;48.934;12.050;2023-02-01T03:41:53;3.10;96.60
68480;DHT22;55469;48.934;12.050;2023-02-01T03:44:38;3.10;96.70
68480;DHT22;55469;48.934;12.050;2023-02-01T03:47:29;3.10;96.60
68480;DHT22;55469;48.934;12.050;2023-02-01T03:50:02;3.10;96.70
68480;DHT22;55469;48.934;12.050;2023-02-01T03:52:42;3.10;96.60
68480;DHT22;55469;48.934;12.050;2023-02-01T03:55:10;3.10;96.60
68480;DHT22;55469;48.934;12.050;2023-02-01T03:57:43;3.10;96.60
68480;DHT22;55469;48.934;12.050;2023-02-01T04:00:23;3.10;96.70
68480;DHT22;55469;48.934;12.050;2023-02-01T04:02:50;3.10;96.60
68480;DHT22;55469;48.934;12.050;2023-02-01T04:05:16;3.10;96.60
68480;DHT22;55469;48.934;12.050;2023-02-01T04:07:42;3.10;96.60
68480;DHT22;55469;48.934;12.050;2023-02-01T04:10:09;3.10;96.70
68480;DHT22;55469;48.934;12.050;2023-02-01T04:12:36;3.10;96.70
68480;DHT22;55469;48.934;12.050;2023-02-01T04:15:02;3.10;96.60
68480;DHT22;55469;48.934;12.050;2023-02-01T04:17:28;3.10;96.70
68480;DHT22;55469;48.934;12.050;2023-02-01T04:19:54;3.10;96.70
68480;DHT22;55469;48.934;12.050;2023-02-01T04:22:20;3.10;96.70
68480;DHT22;55469;48.934;12.050;2023-02-01T04:24:46;3.10;96.60
68480;DHT22;55469;48.934;12.050;2023-02-01T04:27:11;3.10;96.70
68480;DHT22;55469;48.934;12.050;2023-02-01T04:29:37;3.10;96.60
68480;DHT22;55469;48.934;12.050;2023-02-01T04:32:04;3.10;96.60
68480;DHT22;55469;48.934;12.050;2023-02-01T04:34:30;3.10;96.60
68480;DHT22;55469;48.934;12.050;2023-02-01T04:36:56;3.10;96.70
68480;DHT22;55469;48.934;12.050;2023-02-01T04:39:22;3.10;96.60
68480;DHT22;55469;48.934;12.050;2023-02-01T04:41:48;3.10;96.70
68480;DHT22;55469;48.934;12.050;2023-02-01T04:44:18;3.10;96.70
68480;DHT22;55469;48.934;12.050;2023-02-01T04:46:45;3.10;96.70
68480;DHT22;55469;48.934;12.050;2023-02-01T04:49:13;3.10;96.70
68480;DHT22;55469;48.934;12.050;2023-02-01T04:51:40;3.10;96.60
68480;DHT22;55469;48.934;12.050;2023-02-01T04:54:06;3.10;96.60
68480;DHT22;55469;48.934;12.050;2023-02-01T04:56:33;3.10;96.60
68480;DHT22;55469;48.934;12.050;2023-02-01T04:59:00;3.10;96.70
68480;DHT22;55469;48.934;12.050;2023-02-01T05:01:28;3.10;96.70
68480;DHT22;55469;48.934;12.050;2023-02-01T05:03:54;3.10;96.60
68480;DHT22;55469;48.934;12.050;2023-02-01T05:06:20;3.10;96.60
68480;DHT22;55469;48.934;12.050;2023-02-01T05:08:49;3.10;96.60
68480;DHT22;55469;48.934;12.050;2023-02-01T05:11:14;3.10;96.60
68480;DHT22;55469;48.934;12.050;2023-02-01T05:13:59;3.10;96.60
68480;DHT22;55469;48.934;12.050;2023-02-01T05:16:26;3.10;96.60
68480;DHT22;55469;48.934;12.050;2023-02-01T05:18:52;3.10;96.70
68480;DHT22;55469;48.934;12.050;2023-02-01T05:21:18;3.10;96.70
68480;DHT22;55469;48.934;12.050;2023-02-01T05:23:44;3.10;96.70
68480;DHT22;55469;48.934;12.050;2023-02-01T05:26:37;3.10;97.10
68480;DHT22;55469;48.934;12.050;2023-02-01T05:29:04;3.10;96.70
68480;DHT22;55469;48.934;12.050;2023-02-01T05:31:30;3.10;96.80
68480;DHT22;55469;48.934;12.050;2023-02-01T05:33:56;3.10;96.70
68480;DHT22;55469;48.934;12.050;2023-02-01T05:36:21;3.10;96.70
68480;DHT22;55469;48.934;12.050;2023-02-01T05:38:47;3.10;96.70
68480;DHT22;55469;48.934;12.050;2023-02-01T05:41:13;3.10;97.10
68480;DHT22;55469;48.934;12.050;2023-02-01T05:43:39;3.10;96.70
68480;DHT22;55469;48.934;12.050;2023-02-01T05:46:04;3.10;97.20
68480;DHT22;55469;48.934;12.050;2023-02-01T05:48:30;3.10;96.80
68480;DHT22;55469;48.934;12.050;2023-02-01T05:50:56;3.10;96.80
68480;DHT22;55469;48.934;12.050;2023-02-01T05:53:21;3.10;96.60
68480;DHT22;55469;48.934;12.050;2023-02-01T05:55:47;3.10;96.60
68480;DHT22;55469;48.934;12.050;2023-02-01T05:58:13;3.10;96.60
68480;DHT22;55469;48.934;12.050;2023-02-01T06:00:39;3.20;96.70
68480;DHT22;55469;48.934;12.050;2023-02-01T06:03:05;3.10;96.60
68480;DHT22;55469;48.934;12.050;2023-02-01T06:05:31;3.10;96.70
68480;DHT22;55469;48.934;12.050;2023-02-01T06:07:57;3.10;96.60
68480;DHT22;55469;48.934;12.050;2023-02-01T06:10:23;3.10;96.70
68480;DHT22;55469;48.934;12.050;2023-02-01T06:12:49;3.10;96.70
68480;DHT22;55469;48.934;12.050;2023-02-01T06:15:15;3.10;96.70
68480;DHT22;55469;48.934;12.050;2023-02-01T06:17:43;3.10;96.70
68480;DHT22;55469;48.934;12.050;2023-02-01T06:20:11;3.10;96.70
68480;DHT22;55469;48.934;12.050;2023-02-01T06:22:38;3.10;96.70
68480;DHT22;55469;48.934;12.050;2023-02-01T06:25:06;3.10;96.60
68480;DHT22;55469;48.934;12.050;2023-02-01T06:27:33;3.20;96.70
68480;DHT22;55469;48.934;12.050;2023-02-01T06:29:59;3.10;96.60
68480;DHT22;55469;48.934;12.050;2023-02-01T06:32:25;3.10;96.70
68480;DHT22;55469;48.934;12.050;2023-02-01T06:34:51;3.10;96.70
68480;DHT22;55469;48.934;12.050;2023-02-01T06:37:18;3.10;96.70
68480;DHT22;55469;48.934;12.050;2023-02-01T06:39:44;3.10;96.80
68480;DHT22;55469;48.934;12.050;2023-02-01T06:42:10;3.20;96.80
68480;DHT22;55469;48.934;12.050;2023-02-01T06:44:36;3.20;96.80
68480;DHT22;55469;48.934;12.050;2023-02-01T06:47:03;3.10;96.70
68480;DHT22;55469;48.934;12.050;2023-02-01T06:49:29;3.20;96.70
68480;DHT22;55469;48.934;12.050;2023-02-01T06:51:55;3.10;96.70
68480;DHT22;55469;48.934;12.050;2023-02-01T06:54:20;3.10;96.70
68480;DHT22;55469;48.934;12.050;2023-02-01T06:56:46;3.10;96.70
68480;DHT22;55469;48.934;12.050;2023-02-01T06:59:12;3.20;96.80
68480;DHT22;55469;48.934;12.050;2023-02-01T07:01:38;3.20;96.70
68480;DHT22;55469;48.934;12.050;2023-02-01T07:04:04;3.10;96.70
68480;DHT22;55469;48.934;12.050;2023-02-01T07:06:29;3.20;96.80
68480;DHT22;55469;48.934;12.050;2023-02-01T07:08:55;3.10;96.70
68480;DHT22;55469;48.934;12.050;2023-02-01T07:11:22;3.10;96.80
68480;DHT22;55469;48.934;12.050;2023-02-01T07:13:49;3.10;96.80
68480;DHT22;55469;48.934;12.050;2023-02-01T07:16:17;3.10;96.70
68480;DHT22;55469;48.934;12.050;2023-02-01T07:18:44;3.20;96.80
68480;DHT22;55469;48.934;12.050;2023-02-01T07:21:11;3.20;96.90
68480;DHT22;55469;48.934;12.050;2023-02-01T07:23:37;3.20;96.90
68480;DHT22;55469;48.934;12.050;2023-02-01T07:26:05;3.20;96.90
68480;DHT22;55469;48.934;12.050;2023-02-01T07:28:34;3.20;96.90
68480;DHT22;55469;48.934;12.050;2023-02-01T07:31:21;3.20;96.90
68480;DHT22;55469;48.934;12.050;2023-02-01T07:33:48;3.20;96.90
68480;DHT22;55469;48.934;12.050;2023-02-01T07:36:17;3.20;96.90
68480;DHT22;55469;48.934;12.050;2023-02-01T07:38:44;3.20;96.90
68480;DHT22;55469;48.934;12.050;2023-02-01T07:41:12;3.20;96.90
68480;DHT22;55469;48.934;12.050;2023-02-01T07:43:38;3.20;96.90
68480;DHT22;55469;48.934;12.050;2023-02-01T07:46:04;3.20;96.90
68480;DHT22;55469;48.934;12.050;2023-02-01T07:48:30;3.20;96.90
68480;DHT22;55469;48.934;12.050;2023-02-01T07:51:02;3.20;96.90
68480;DHT22;55469;48.934;12.050;2023-02-01T07:53:34;3.20;97.00
68480;DHT22;55469;48.934;12.050;2023-02-01T07:56:00;3.20;97.00
68480;DHT22;55469;48.934;12.050;2023-02-01T07:58:26;3.20;97.00
68480;DHT22;55469;48.934;12.050;2023-02-01T08:00:53;3.20;97.60
68480;DHT22;55469;48.934;12.050;2023-02-01T08:03:38;3.20;97.10
68480;DHT22;55469;48.934;12.050;2023-02-01T08:06:04;3.20;97.10
68480;DHT22;55469;48.934;12.050;2023-02-01T08:08:30;3.20;97.00
68480;DHT22;55469;48.934;12.050;2023-02-01T08:11:00;3.20;97.00
68480;DHT22;55469;48.934;12.050;2023-02-01T08:13:27;3.20;97.10
68480;DHT22;55469;48.934;12.050;2023-02-01T08:15:57;3.20;97.00
68480;DHT22;55469;48.934;12.050;2023-02-01T08:18:24;3.20;97.10
68480;DHT22;55469;48.934;12.050;2023-02-01T08:20:50;3.20;97.10
68480;DHT22;55469;48.934;12.050;2023-02-01T08:23:16;3.20;97.00
68480;DHT22;55469;48.934;12.050;2023-02-01T08:25:43;3.20;97.00
68480;DHT22;55469;48.934;12.050;2023-02-01T08:28:10;3.20;97.50
68480;DHT22;55469;48.934;12.050;2023-02-01T08:30:37;3.20;97.10
68480;DHT22;55469;48.934;12.050;2023-02-01T08:33:09;3.20;97.10
68480;DHT22;55469;48.934;12.050;2023-02-01T08:35:36;3.20;97.00
68480;DHT22;55469;48.934;12.050;2023-02-01T08:38:02;3.20;97.00
68480;DHT22;55469;48.934;12.050;2023-02-01T08:40:28;3.20;97.10
68480;DHT22;55469;48.934;12.050;2023-02-01T08:42:54;3.20;97.10
68480;DHT22;55469;48.934;12.050;2023-02-01T08:45:25;3.30;97.10
68480;DHT22;55469;48.934;12.050;2023-02-01T08:47:53;3.30;97.10
68480;DHT22;55469;48.934;12.050;2023-02-01T08:50:20;3.30;97.10
68480;DHT22;55469;48.934;12.050;2023-02-01T08:52:47;3.30;97.10
68480;DHT22;55469;48.934;12.050;2023-02-01T08:55:13;3.30;97.10
68480;DHT22;55469;48.934;12.050;2023-02-01T08:57:41;3.30;97.20
68480;DHT22;55469;48.934;12.050;2023-02-01T09:00:12;3.30;97.20
68480;DHT22;55469;48.934;12.050;2023-02-01T09:02:40;3.30;97.20
68480;DHT22;55469;48.934;12.050;2023-02-01T09:05:06;3.30;97.10
68480;DHT22;55469;48.934;12.050;2023-02-01T09:07:33;3.30;97.10
68480;DHT22;55469;48.934;12.050;2023-02-01T09:09:59;3.30;97.10
68480;DHT22;55469;48.934;12.050;2023-02-01T09:12:27;3.30;97.20
68480;DHT22;55469;48.934;12.050;2023-02-01T09:14:55;3.30;97.20
68480;DHT22;55469;48.934;12.050;2023-02-01T09:17:22;3.30;97.20
68480;DHT22;55469;48.934;12.050;2023-02-01T09:19:48;3.40;97.20
68480;DHT22;55469;48.934;12.050;2023-02-01T09:22:15;3.40;97.10
68480;DHT22;55469;48.934;12.050;2023-02-01T09:24:41;3.40;96.90
68480;DHT22;55469;48.934;12.050;2023-02-01T09:27:07;3.40;96.90
68480;DHT22;55469;48.934;12.050;2023-02-01T09:29:33;3.50;96.90
68480;DHT22;55469;48.934;12.050;2023-02-01T09:31:58;3.50;96.90
68480;DHT22;55469;48.934;12.050;2023-02-01T09:34:24;3.50;96.90
68480;DHT22;55469;48.934;12.050;2023-02-01T09:36:50;3.50;97.30
68480;DHT22;55469;48.934;12.050;2023-02-01T09:39:16;3.50;97.30
68480;DHT22;55469;48.934;12.050;2023-02-01T09:47:24;3.50;97.30
68480;DHT22;55469;48.934;12.050;2023-02-01T09:50:05;3.50;97.40
68480;DHT22;55469;48.934;12.050;2023-02-01T09:52:46;3.50;97.30
68480;DHT22;55469;48.934;12.050;2023-02-01T09:55:30;3.50;97.40
68480;DHT22;55469;48.934;12.050;2023-02-01T09:58:04;3.50;97.30
68480;DHT22;55469;48.934;12.050;2023-02-01T10:00:37;3.50;97.90
68480;DHT22;55469;48.934;12.050;2023-02-01T10:03:05;3.50;97.40
68480;DHT22;55469;48.934;12.050;2023-02-01T10:09:10;3.40;97.30
68480;DHT22;55469;48.934;12.050;2023-02-01T10:12:12;3.40;97.40
68480;DHT22;55469;48.934;12.050;2023-02-01T10:27:20;3.50;97.30
68480;DHT22;55469;48.934;12.050;2023-02-01T10:29:54;3.50;97.20
68480;DHT22;55469;48.934;12.050;2023-02-01T10:32:24;3.50;97.10
68480;DHT22;55469;48.934;12.050;2023-02-01T10:34:58;3.50;97.20
68480;DHT22;55469;48.934;12.050;2023-02-01T10:37:30;3.50;97.60
68480;DHT22;55469;48.934;12.050;2023-02-01T10:40:01;3.60;97.30
68480;DHT22;55469;48.934;12.050;2023-02-01T10:42:31;3.60;97.20
68480;DHT22;55469;48.934;12.050;2023-02-01T10:44:59;3.60;97.20
68480;DHT22;55469;48.934;12.050;2023-02-01T10:47:25;3.60;97.10
68480;DHT22;55469;48.934;12.050;2023-02-01T10:52:52;3.60;97.20
68480;DHT22;55469;48.934;12.050;2023-02-01T10:55:52;3.50;97.10
68480;DHT22;55469;48.934;12.050;2023-02-01T10:58:21;3.60;97.20
68480;DHT22;55469;48.934;12.050;2023-02-01T11:00:55;3.60;97.10
68480;DHT22;55469;48.934;12.050;2023-02-01T11:03:39;3.60;97.20
68480;DHT22;55469;48.934;12.050;2023-02-01T11:11:32;3.70;96.90
68480;DHT22;55469;48.934;12.050;2023-02-01T11:14:15;3.70;96.90
68480;DHT22;55469;48.934;12.050;2023-02-01T11:16:47;3.70;97.10
68480;DHT22;55469;48.934;12.050;2023-02-01T11:19:16;3.80;97.10
68480;DHT22;55469;48.934;12.050;2023-02-01T11:21:43;3.70;97.00
68480;DHT22;55469;48.934;12.050;2023-02-01T11:24:25;3.70;97.00
68480;DHT22;55469;48.934;12.050;2023-02-01T11:26:59;3.80;97.10
68480;DHT22;55469;48.934;12.050;2023-02-01T11:29:34;3.80;97.10
68480;DHT22;55469;48.934;12.050;2023-02-01T11:32:02;3.80;96.90
68480;DHT22;55469;48.934;12.050;2023-02-01T11:34:38;3.80;96.70
68480;DHT22;55469;48.934;12.050;2023-02-01T11:37:24;3.80;96.90
68480;DHT22;55469;48.934;12.050;2023-02-01T11:40:03;3.80;96.90
68480;DHT22;55469;48.934;12.050;2023-02-01T11:43:22;3.80;96.80
68480;DHT22;55469;48.934;12.050;2023-02-01T11:46:03;3.80;96.80
68480;DHT22;55469;48.934;12.050;2023-02-01T11:48:34;3.80;96.80
68480;DHT22;55469;48.934;12.050;2023-02-01T11:51:44;3.80;96.80
68480;DHT22;55469;48.934;12.050;2023-02-01T11:54:27;3.90;96.80
68480;DHT22;55469;48.934;12.050;2023-02-01T12:00:25;3.90;96.80
68480;DHT22;55469;48.934;12.050;2023-02-01T12:11:46;3.90;96.70
68480;DHT22;55469;48.934;12.050;2023-02-01T12:15:19;3.90;96.60
68480;DHT22;55469;48.934;12.050;2023-02-01T12:23:59;4.00;96.60
68480;DHT22;55469;48.934;12.050;2023-02-01T12:44:16;3.90;96.60
68480;DHT22;55469;48.934;12.050;2023-02-01T12:46:56;3.90;96.70
68480;DHT22;55469;48.934;12.050;2023-02-01T12:49:53;3.90;96.80
68480;DHT22;55469;48.934;12.050;2023-02-01T12:52:46;3.90;96.60
68480;DHT22;55469;48.934;12.050;2023-02-01T12:55:34;3.90;96.70
68480;DHT22;55469;48.934;12.050;2023-02-01T13:01:01;3.90;96.70
68480;DHT22;55469;48.934;12.050;2023-02-01T13:06:09;3.90;96.70
68480;DHT22;55469;48.934;12.050;2023-02-01T13:08:47;3.90;96.70
68480;DHT22;55469;48.934;12.050;2023-02-01T13:11:24;3.90;96.60
68480;DHT22;55469;48.934;12.050;2023-02-01T13:14:01;3.90;96.60
68480;DHT22;55469;48.934;12.050;2023-02-01T13:16:46;3.80;96.60
68480;DHT22;55469;48.934;12.050;2023-02-01T13:22:31;3.90;96.60
68480;DHT22;55469;48.934;12.050;2023-02-01T13:25:02;3.90;96.70
68480;DHT22;55469;48.934;12.050;2023-02-01T13:27:31;3.90;96.70
68480;DHT22;55469;48.934;12.050;2023-02-01T13:30:21;3.90;96.70
68480;DHT22;55469;48.934;12.050;2023-02-01T13:41:58;3.90;96.80
68480;DHT22;55469;48.934;12.050;2023-02-01T13:44:37;3.80;96.90
68480;DHT22;55469;48.934;12.050;2023-02-01T13:49:49;3.90;96.90
68480;DHT22;55469;48.934;12.050;2023-02-01T13:53:00;3.90;96.90
68480;DHT22;55469;48.934;12.050;2023-02-01T13:55:33;3.90;96.80
68480;DHT22;55469;48.934;12.050;2023-02-01T13:58:21;3.90;96.90
68480;DHT22;55469;48.934;12.050;2023-02-01T14:03:51;3.90;96.80
68480;DHT22;55469;48.934;12.050;2023-02-01T14:11:40;3.90;96.60
68480;DHT22;55469;48.934;12.050;2023-02-01T14:19:30;3.90;96.70
68480;DHT22;55469;48.934;12.050;2023-02-01T14:24:54;3.90;96.70
68480;DHT22;55469;48.934;12.050;2023-02-01T14:27:27;3.90;96.70
68480;DHT22;55469;48.934;12.050;2023-02-01T14:29:58;3.90;96.70
68480;DHT22;55469;48.934;12.050;2023-02-01T14:32:37;3.90;96.70
68480;DHT22;55469;48.934;12.050;2023-02-01T14:35:21;3.90;96.70
68480;DHT22;55469;48.934;12.050;2023-02-01T14:37:53;3.90;96.70
68480;DHT22;55469;48.934;12.050;2023-02-01T14:40:27;3.90;96.70
68480;DHT22;55469;48.934;12.050;2023-02-01T14:42:54;3.90;96.70
68480;DHT22;55469;48.934;12.050;2023-02-01T15:01:49;3.90;96.70
68480;DHT22;55469;48.934;12.050;2023-02-01T15:04:17;3.90;96.80
68480;DHT22;55469;48.934;12.050;2023-02-01T15:06:57;3.90;96.70
68480;DHT22;55469;48.934;12.050;2023-02-01T15:09:37;3.90;96.70
68480;DHT22;55469;48.934;12.050;2023-02-01T15:12:15;3.90;96.80
68480;DHT22;55469;48.934;12.050;2023-02-01T15:14:48;3.90;96.80
68480;DHT22;55469;48.934;12.050;2023-02-01T15:17:30;3.90;96.80
68480;DHT22;55469;48.934;12.050;2023-02-01T15:20:03;3.90;96.80
68480;DHT22;55469;48.934;12.050;2023-02-01T15:22:41;3.90;96.80
68480;DHT22;55469;48.934;12.050;2023-02-01T15:25:24;3.90;96.80
68480;DHT22;55469;48.934;12.050;2023-02-01T15:27:54;3.90;96.80
68480;DHT22;55469;48.934;12.050;2023-02-01T15:30:32;3.90;96.80
68480;DHT22;55469;48.934;12.050;2023-02-01T15:33:17;3.90;96.80
68480;DHT22;55469;48.934;12.050;2023-02-01T15:35:45;3.90;96.80
68480;DHT22;55469;48.934;12.050;2023-02-01T15:41:13;3.90;96.90
68480;DHT22;55469;48.934;12.050;2023-02-01T15:46:32;3.90;96.90
68480;DHT22;55469;48.934;12.050;2023-02-01T15:49:01;3.90;96.80
68480;DHT22;55469;48.934;12.050;2023-02-01T15:51:29;3.90;96.90
68480;DHT22;55469;48.934;12.050;2023-02-01T15:54:04;3.90;96.90
68480;DHT22;55469;48.934;12.050;2023-02-01T15:56:39;3.90;96.90
68480;DHT22;55469;48.934;12.050;2023-02-01T15:59:17;3.90;97.30
68480;DHT22;55469;48.934;12.050;2023-02-01T16:01:45;3.90;96.80
68480;DHT22;55469;48.934;12.050;2023-02-01T16:06:55;3.90;96.80
68480;DHT22;55469;48.934;12.050;2023-02-01T16:09:24;3.90;96.80
68480;DHT22;55469;48.934;12.050;2023-02-01T16:12:01;3.90;96.70
68480;DHT22;55469;48.934;12.050;2023-02-01T16:14:29;3.90;96.70
68480;DHT22;55469;48.934;12.050;2023-02-01T16:16:57;3.90;96.70
68480;DHT22;55469;48.934;12.050;2023-02-01T16:19:23;3.90;96.70
68480;DHT22;55469;48.934;12.050;2023-02-01T16:21:53;3.90;96.70
68480;DHT22;55469;48.934;12.050;2023-02-01T16:24:20;3.90;96.70
68480;DHT22;55469;48.934;12.050;2023-02-01T16:26:48;3.90;96.70
68480;DHT22;55469;48.934;12.050;2023-02-01T16:29:14;3.90;96.60
68480;DHT22;55469;48.934;12.050;2023-02-01T16:31:40;3.90;96.60
68480;DHT22;55469;48.934;12.050;2023-02-01T16:34:13;3.90;96.60
68480;DHT22;55469;48.934;12.050;2023-02-01T16:36:40;3.90;96.60
68480;DHT22;55469;48.934;12.050;2023-02-01T16:39:10;3.90;96.60
68480;DHT22;55469;48.934;12.050;2023-02-01T16:41:36;3.90;96.60
68480;DHT22;55469;48.934;12.050;2023-02-01T16:44:03;3.90;96.60
68480;DHT22;55469;48.934;12.050;2023-02-01T16:46:32;3.90;96.60
68480;DHT22;55469;48.934;12.050;2023-02-01T16:49:00;3.90;96.60
68480;DHT22;55469;48.934;12.050;2023-02-01T16:51:29;3.90;96.60
68480;DHT22;55469;48.934;12.050;2023-02-01T16:53:58;3.90;96.60
68480;DHT22;55469;48.934;12.050;2023-02-01T16:56:33;3.80;96.50
68480;DHT22;55469;48.934;12.050;2023-02-01T16:59:01;3.90;96.60
68480;DHT22;55469;48.934;12.050;2023-02-01T17:01:27;3.90;96.60
68480;DHT22;55469;48.934;12.050;2023-02-01T17:03:53;3.90;96.50
68480;DHT22;55469;48.934;12.050;2023-02-01T17:06:21;3.90;96.60
68480;DHT22;55469;48.934;12.050;2023-02-01T17:08:55;3.90;96.60
68480;DHT22;55469;48.934;12.050;2023-02-01T17:11:23;3.90;96.50
68480;DHT22;55469;48.934;12.050;2023-02-01T17:13:49;3.90;96.50
68480;DHT22;55469;48.934;12.050;2023-02-01T17:18:46;3.90;96.50
68480;DHT22;55469;48.934;12.050;2023-02-01T17:21:16;3.90;96.50
68480;DHT22;55469;48.934;12.050;2023-02-01T17:23:41;3.90;96.50
68480;DHT22;55469;48.934;12.050;2023-02-01T17:26:09;3.90;96.50
68480;DHT22;55469;48.934;12.050;2023-02-01T17:28:35;3.90;96.40
68480;DHT22;55469;48.934;12.050;2023-02-01T17:31:01;3.90;96.50
68480;DHT22;55469;48.934;12.050;2023-02-01T17:33:33;3.90;96.50
68480;DHT22;55469;48.934;12.050;2023-02-01T17:36:00;3.90;96.50
68480;DHT22;55469;48.934;12.050;2023-02-01T17:38:26;3.90;96.50
68480;DHT22;55469;48.934;12.050;2023-02-01T17:40:52;3.90;96.40
68480;DHT22;55469;48.934;12.050;2023-02-01T17:43:23;3.90;96.40
68480;DHT22;55469;48.934;12.050;2023-02-01T17:45:52;3.90;96.50
68480;DHT22;55469;48.934;12.050;2023-02-01T17:48:31;3.80;96.50
68480;DHT22;55469;48.934;12.050;2023-02-01T17:50:57;3.90;96.60
68480;DHT22;55469;48.934;12.050;2023-02-01T17:53:27;3.80;96.50
68480;DHT22;55469;48.934;12.050;2023-02-01T17:55:54;3.90;96.50
68480;DHT22;55469;48.934;12.050;2023-02-01T17:58:23;3.90;96.50
68480;DHT22;55469;48.934;12.050;2023-02-01T18:00:50;3.80;96.50
68480;DHT22;55469;48.934;12.050;2023-02-01T18:03:25;3.90;96.50
68480;DHT22;55469;48.934;12.050;2023-02-01T18:05:56;3.90;96.40
68480;DHT22;55469;48.934;12.050;2023-02-01T18:08:26;3.90;96.40
68480;DHT22;55469;48.934;12.050;2023-02-01T18:10:56;3.90;96.50
68480;DHT22;55469;48.934;12.050;2023-02-01T18:13:28;3.90;96.40
68480;DHT22;55469;48.934;12.050;2023-02-01T18:15:55;3.90;96.40
68480;DHT22;55469;48.934;12.050;2023-02-01T18:18:24;3.90;96.50
68480;DHT22;55469;48.934;12.050;2023-02-01T18:20:50;3.90;96.40
68480;DHT22;55469;48.934;12.050;2023-02-01T18:23:20;3.90;96.40
68480;DHT22;55469;48.934;12.050;2023-02-01T18:25:49;3.90;96.40
68480;DHT22;55469;48.934;12.050;2023-02-01T18:28:17;3.90;96.40
68480;DHT22;55469;48.934;12.050;2023-02-01T18:30:47;3.90;96.40